createdAt,value
2022-11-09T00:00:42.136Z,99915.88
2022-11-09T00:03:08.705Z,99946.22
2022-11-09T00:05:35.171Z,99936.44
2022-11-09T00:08:01.822Z,99937.19
2022-11-09T00:10:28.644Z,99935.06
2022-11-09T00:12:55.107Z,99889.09
2022-11-09T00:15:21.622Z,99928.06
2022-11-09T00:17:48.212Z,99934.94
2022-11-09T00:20:14.786Z,99918.31
2022-11-09T00:22:41.296Z,99940.03
2022-11-09T00:25:08.302Z,99908.63
2022-11-09T00:27:34.753Z,99923.28
2022-11-09T00:30:01.599Z,99930.41
2022-11-09T00:32:28.231Z,99924.69
2022-11-09T00:34:54.721Z,99929.72
2022-11-09T00:37:21.348Z,99884.31
2022-11-09T00:39:47.930Z,99923.06
2022-11-09T00:42:14.560Z,99901.16
2022-11-09T00:44:41.018Z,99896.31
2022-11-09T00:47:07.688Z,99913.97
2022-11-09T00:49:34.123Z,99886.06
2022-11-09T00:52:00.562Z,99884.09
2022-11-09T00:54:26.997Z,99913.09
2022-11-09T00:56:53.807Z,99924.38
2022-11-09T00:59:20.262Z,99929.91
2022-11-09T01:01:46.701Z,99926.28
2022-11-09T01:04:13.146Z,99928.13
2022-11-09T01:06:39.643Z,99890.97
2022-11-09T01:09:06.136Z,99927.28
2022-11-09T01:11:32.582Z,99907.13
2022-11-09T01:14:00.478Z,99926.19
2022-11-09T01:16:27.608Z,99923.44
2022-11-09T01:18:55.585Z,99928.19
2022-11-09T01:21:22.834Z,99927.03
2022-11-09T01:23:49.288Z,99886.31
2022-11-09T01:26:16.363Z,99938.00
2022-11-09T01:28:43.406Z,99924.53
2022-11-09T01:31:12.851Z,99920.44
2022-11-09T01:33:39.369Z,99919.22
2022-11-09T01:36:08.463Z,99910.38
2022-11-09T01:38:37.015Z,99916.69
2022-11-09T01:41:07.653Z,99897.81
2022-11-09T01:43:34.847Z,99895.44
2022-11-09T01:46:24.214Z,99923.34
2022-11-09T01:48:53.888Z,99925.81
2022-11-09T01:51:27.966Z,99921.50
2022-11-09T01:54:01.445Z,99915.91
2022-11-09T01:56:28.112Z,99908.66
2022-11-09T01:59:00.597Z,99934.59
2022-11-09T02:01:27.383Z,99929.56
2022-11-09T02:04:01.846Z,99933.16
2022-11-09T02:06:29.920Z,99894.19
2022-11-09T02:09:04.742Z,99925.25
2022-11-09T02:11:31.226Z,99924.94
2022-11-09T02:14:00.962Z,99902.44
2022-11-09T02:16:28.095Z,99918.69
2022-11-09T02:18:57.422Z,99925.00
2022-11-09T02:21:26.142Z,99912.91
2022-11-09T02:23:53.181Z,99900.56
2022-11-09T02:26:24.169Z,99891.84
2022-11-09T02:28:52.488Z,99895.81
2022-11-09T02:31:19.465Z,99922.34
2022-11-09T02:33:59.851Z,99914.88
2022-11-09T02:36:26.308Z,99878.75
2022-11-09T02:38:54.802Z,99917.00
2022-11-09T02:41:22.204Z,99922.59
2022-11-09T02:43:50.850Z,99892.09
2022-11-09T02:46:35.307Z,99903.44
2022-11-09T02:49:02.379Z,99917.44
2022-11-09T02:51:29.083Z,99916.22
2022-11-09T02:53:55.671Z,99881.88
2022-11-09T02:56:22.209Z,99864.75
2022-11-09T02:58:48.733Z,99879.22
2022-11-09T03:01:15.749Z,99906.34
2022-11-09T03:03:42.243Z,99911.94
2022-11-09T03:06:09.005Z,99885.59
2022-11-09T03:08:35.490Z,99911.00
2022-11-09T03:11:02.089Z,99920.16
2022-11-09T03:13:28.520Z,99906.13
2022-11-09T03:15:54.994Z,99925.47
2022-11-09T03:18:21.470Z,99922.00
2022-11-09T03:20:47.923Z,99925.53
2022-11-09T03:23:14.381Z,99930.84
2022-11-09T03:25:40.842Z,99920.00
2022-11-09T03:28:08.771Z,99901.66
2022-11-09T03:30:35.256Z,99895.78
2022-11-09T03:33:05.554Z,99928.66
2022-11-09T03:35:32.134Z,99931.53
2022-11-09T03:37:58.695Z,99930.03
2022-11-09T03:40:25.372Z,99928.72
2022-11-09T03:42:51.924Z,99923.69
2022-11-09T03:45:18.353Z,99919.56
2022-11-09T03:47:46.147Z,99889.81
2022-11-09T03:50:14.684Z,99926.03
2022-11-09T03:52:44.492Z,99930.03
2022-11-09T03:55:11.238Z,99931.31
2022-11-09T03:57:37.824Z,99913.84
2022-11-09T04:00:06.495Z,99948.91
2022-11-09T04:02:33.182Z,99946.75
2022-11-09T04:04:59.666Z,99932.03
2022-11-09T04:07:26.149Z,99946.53
2022-11-09T04:09:52.574Z,99963.28
2022-11-09T04:12:20.212Z,99912.69
2022-11-09T04:14:46.665Z,99926.34
2022-11-09T04:17:13.102Z,99922.03
2022-11-09T04:19:39.809Z,99952.09
2022-11-09T04:22:06.320Z,99949.09
2022-11-09T04:24:32.879Z,99942.22
2022-11-09T04:26:59.408Z,99932.03
2022-11-09T04:29:26.083Z,99945.19
2022-11-09T04:31:52.553Z,99945.06
2022-11-09T04:34:19.036Z,99906.16
2022-11-09T04:36:45.504Z,99951.75
2022-11-09T04:39:12.327Z,99957.06
2022-11-09T04:41:38.902Z,99924.91
2022-11-09T04:44:05.579Z,99914.00
2022-11-09T04:46:32.228Z,99952.25
2022-11-09T04:48:58.759Z,99919.41
2022-11-09T04:51:25.199Z,99958.47
2022-11-09T04:53:51.747Z,99941.19
2022-11-09T04:56:18.219Z,99929.47
2022-11-09T04:58:44.879Z,99945.84
2022-11-09T05:01:13.072Z,99955.94
2022-11-09T05:03:40.149Z,99956.03
2022-11-09T05:06:25.822Z,99952.06
2022-11-09T05:08:53.463Z,99917.44
2022-11-09T05:11:20.300Z,99955.72
2022-11-09T05:13:46.938Z,99951.72
2022-11-09T05:16:13.556Z,99956.06
2022-11-09T05:18:40.297Z,99939.22
2022-11-09T05:21:07.393Z,99925.38
2022-11-09T05:23:52.430Z,99962.13
2022-11-09T05:26:18.991Z,99960.09
2022-11-09T05:28:45.417Z,99958.41
2022-11-09T05:31:12.005Z,99972.66
2022-11-09T05:33:38.508Z,99972.13
2022-11-09T05:36:05.535Z,99978.78
2022-11-09T05:38:32.159Z,99970.44
2022-11-09T05:40:58.798Z,99945.75
2022-11-09T05:43:25.363Z,99961.72
2022-11-09T05:45:51.778Z,99968.50
2022-11-09T05:48:18.796Z,99977.84
2022-11-09T05:50:45.397Z,99939.59
2022-11-09T05:53:12.344Z,99981.13
2022-11-09T05:55:39.437Z,99985.84
2022-11-09T05:58:06.485Z,99982.19
2022-11-09T06:00:32.998Z,99982.50
2022-11-09T06:03:10.421Z,99963.81
2022-11-09T06:05:38.976Z,99984.50
2022-11-09T06:08:14.692Z,99967.41
2022-11-09T06:10:42.521Z,99987.13
2022-11-09T06:13:09.408Z,99986.84
2022-11-09T06:15:35.939Z,99937.00
2022-11-09T06:18:06.642Z,99975.09
2022-11-09T06:20:33.386Z,99988.94
2022-11-09T06:23:03.996Z,99999.84
2022-11-09T06:25:32.184Z,100002.31
2022-11-09T06:27:58.987Z,99983.34
2022-11-09T06:30:25.541Z,99980.44
2022-11-09T06:32:52.110Z,99994.56
2022-11-09T06:35:18.679Z,99998.56
2022-11-09T06:37:45.116Z,99966.97
2022-11-09T06:44:41.894Z,100020.50
2022-11-09T06:47:08.479Z,100003.22
2022-11-09T06:49:34.892Z,99984.94
2022-11-09T06:52:01.400Z,100001.22
2022-11-09T06:54:28.451Z,100018.78
2022-11-09T06:56:55.495Z,99994.56
2022-11-09T06:59:22.189Z,100019.13
2022-11-09T07:01:48.695Z,100021.41
2022-11-09T07:04:15.369Z,100009.16
2022-11-09T07:06:41.940Z,99990.84
2022-11-09T07:09:09.442Z,99998.88
2022-11-09T07:11:36.109Z,100030.59
2022-11-09T07:14:03.009Z,100029.97
2022-11-09T07:16:30.776Z,100001.50
2022-11-09T07:18:57.420Z,100025.66
2022-11-09T07:21:24.148Z,100037.34
2022-11-09T07:23:50.662Z,99993.06
2022-11-09T07:26:17.368Z,100041.00
2022-11-09T07:28:44.168Z,100022.28
2022-11-09T07:31:10.691Z,100046.53
2022-11-09T07:33:37.366Z,100028.78
2022-11-09T07:36:05.271Z,100050.50
2022-11-09T07:38:31.881Z,100038.84
2022-11-09T07:41:00.285Z,100048.03
2022-11-09T07:43:27.351Z,100050.81
2022-11-09T07:45:53.883Z,100054.03
2022-11-09T07:48:21.006Z,100055.22
2022-11-09T07:50:47.495Z,100034.19
2022-11-09T07:53:15.285Z,100054.22
2022-11-09T07:55:42.222Z,100058.72
2022-11-09T07:58:14.514Z,100057.06
2022-11-09T08:00:41.936Z,100061.00
2022-11-09T08:03:09.157Z,100042.31
2022-11-09T08:05:36.543Z,100043.16
2022-11-09T08:08:06.155Z,100064.91
2022-11-09T08:10:33.562Z,100076.94
2022-11-09T08:13:05.195Z,100070.97
2022-11-09T08:15:32.051Z,100081.69
2022-11-09T08:18:04.809Z,100079.78
2022-11-09T08:20:31.456Z,100048.19
2022-11-09T08:23:03.304Z,100073.03
2022-11-09T08:25:31.979Z,100085.13
2022-11-09T08:27:58.607Z,100035.66
2022-11-09T08:30:25.598Z,100076.97
2022-11-09T08:32:52.752Z,100057.66
2022-11-09T08:35:22.141Z,100083.28
2022-11-09T08:37:50.362Z,100066.91
2022-11-09T08:40:19.370Z,100054.75
2022-11-09T08:42:46.407Z,100084.22
2022-11-09T08:45:13.749Z,100065.88
2022-11-09T08:47:40.632Z,100076.94
2022-11-09T08:50:08.849Z,100092.00
2022-11-09T08:52:35.484Z,100065.28
2022-11-09T08:55:02.472Z,100089.09
2022-11-09T08:57:29.166Z,100080.97
2022-11-09T08:59:55.610Z,100062.47
2022-11-09T09:02:22.134Z,100107.22
2022-11-09T09:04:49.052Z,100102.06
2022-11-09T09:07:15.599Z,100060.75
2022-11-09T09:09:42.102Z,100076.53
2022-11-09T09:12:09.793Z,100099.56
2022-11-09T09:14:36.651Z,100096.50
2022-11-09T09:17:03.529Z,100107.28
2022-11-09T09:19:30.068Z,100110.22
2022-11-09T09:21:56.825Z,100105.63
2022-11-09T09:24:23.466Z,100099.84
2022-11-09T09:26:50.178Z,100100.66
2022-11-09T09:29:16.750Z,100051.50
2022-11-09T09:31:43.201Z,100093.09
2022-11-09T09:34:11.171Z,100095.31
2022-11-09T09:36:37.691Z,100093.44
2022-11-09T09:39:04.486Z,100100.16
2022-11-09T09:41:38.358Z,100099.22
2022-11-09T09:44:18.026Z,100093.31
2022-11-09T09:46:49.529Z,100072.72
2022-11-09T09:49:24.723Z,100089.38
2022-11-09T09:51:56.611Z,100106.19
2022-11-09T09:54:30.708Z,100103.34
2022-11-09T09:57:00.051Z,100106.56
2022-11-09T09:59:38.725Z,100102.22
2022-11-09T10:02:24.541Z,100106.84
2022-11-09T10:04:52.669Z,100101.28
2022-11-09T10:07:34.293Z,100112.97
2022-11-09T10:10:36.132Z,100122.97
2022-11-09T10:13:21.310Z,100134.34
2022-11-09T10:15:50.841Z,100117.53
2022-11-09T10:18:36.024Z,100122.91
2022-11-09T10:21:11.870Z,100131.34
2022-11-09T10:23:44.057Z,100124.91
2022-11-09T10:26:18.552Z,100125.81
2022-11-09T10:29:14.414Z,100074.50
2022-11-09T10:31:41.310Z,100115.09
2022-11-09T10:34:17.676Z,100127.28
2022-11-09T10:36:48.644Z,100118.75
2022-11-09T10:39:15.744Z,100121.66
2022-11-09T10:41:48.576Z,100126.94
2022-11-09T10:44:18.065Z,100132.03
2022-11-09T10:47:06.634Z,100121.69
2022-11-09T10:49:34.188Z,100125.97
2022-11-09T10:52:01.538Z,100141.09
2022-11-09T10:54:37.992Z,100118.75
2022-11-09T10:57:13.092Z,100119.56
2022-11-09T10:59:57.341Z,100131.84
2022-11-09T11:02:26.883Z,100133.59
2022-11-09T11:04:59.349Z,100129.75
2022-11-09T11:07:25.834Z,100100.56
2022-11-09T11:09:52.453Z,100095.66
2022-11-09T11:12:22.635Z,100127.19
2022-11-09T11:14:49.098Z,100129.44
2022-11-09T11:17:36.369Z,100132.44
2022-11-09T11:20:32.096Z,100137.75
2022-11-09T11:23:13.433Z,100134.97
2022-11-09T11:25:59.282Z,100139.41
2022-11-09T11:28:40.471Z,100130.19
2022-11-09T11:31:15.288Z,100129.47
2022-11-09T11:33:42.333Z,100139.34
2022-11-09T11:36:37.102Z,100132.19
2022-11-09T11:39:13.825Z,100135.53
2022-11-09T11:41:58.841Z,100131.38
2022-11-09T11:44:59.268Z,100131.41
2022-11-09T11:48:19.353Z,100133.09
2022-11-09T11:50:47.055Z,100138.66
2022-11-09T11:53:14.029Z,100155.75
2022-11-09T11:55:52.652Z,100137.25
2022-11-09T11:58:37.684Z,100147.06
2022-11-09T12:01:29.606Z,100115.63
2022-11-09T12:04:05.828Z,100136.94
2022-11-09T12:06:48.229Z,100149.47
2022-11-09T12:09:37.867Z,100159.38
2022-11-09T12:12:17.289Z,100146.97
2022-11-09T12:15:11.340Z,100149.38
2022-11-09T12:17:49.901Z,100166.34
2022-11-09T12:20:34.089Z,100142.16
2022-11-09T12:23:16.119Z,100157.50
2022-11-09T12:25:52.613Z,100158.84
2022-11-09T12:28:36.093Z,100149.38
2022-11-09T12:31:27.627Z,100164.44
2022-11-09T12:33:59.889Z,100164.81
2022-11-09T12:36:33.495Z,100150.34
2022-11-09T12:39:07.869Z,100148.94
2022-11-09T12:41:36.068Z,100157.03
2022-11-09T12:44:13.201Z,100134.78
2022-11-09T12:46:58.855Z,100144.06
2022-11-09T12:49:30.986Z,100158.16
2022-11-09T12:51:59.099Z,100088.78
2022-11-09T12:54:26.095Z,100149.19
2022-11-09T12:56:59.091Z,100149.56
2022-11-09T12:59:28.633Z,100145.13
2022-11-09T13:01:59.415Z,100155.88
2022-11-09T13:04:26.399Z,100150.97
2022-11-09T13:07:17.208Z,100160.19
2022-11-09T13:09:45.121Z,100166.06
2022-11-09T13:12:24.833Z,100163.81
2022-11-09T13:14:51.320Z,100168.94
2022-11-09T13:17:20.927Z,100166.88
2022-11-09T13:19:48.419Z,100162.66
2022-11-09T13:22:19.635Z,100160.31
2022-11-09T13:24:50.370Z,100123.22
2022-11-09T13:27:41.473Z,100174.88
2022-11-09T13:30:23.335Z,100172.91
2022-11-09T13:33:09.509Z,100172.59
2022-11-09T13:35:42.209Z,100180.13
2022-11-09T13:38:19.741Z,100155.03
2022-11-09T13:40:48.211Z,100181.53
2022-11-09T13:43:18.140Z,100188.78
2022-11-09T13:45:50.080Z,100183.06
2022-11-09T13:48:34.733Z,100183.59
2022-11-09T13:51:07.250Z,100166.22
2022-11-09T13:53:36.732Z,100191.19
2022-11-09T13:56:37.359Z,100190.38
2022-11-09T13:59:14.012Z,100177.94
2022-11-09T14:01:51.720Z,100202.19
2022-11-09T14:04:30.108Z,100202.22
2022-11-09T14:07:05.030Z,100181.81
2022-11-09T14:09:44.668Z,100156.94
2022-11-09T14:12:42.128Z,100188.78
2022-11-09T14:15:27.599Z,100215.22
2022-11-09T14:18:13.125Z,100208.38
2022-11-09T14:20:53.355Z,100184.88
2022-11-09T14:23:23.177Z,100222.19
2022-11-09T14:25:50.105Z,100215.56
2022-11-09T14:28:23.752Z,100194.72
2022-11-09T14:30:50.448Z,100229.34
2022-11-09T14:33:21.637Z,100216.59
2022-11-09T14:35:48.552Z,100226.34
2022-11-09T14:38:18.375Z,100228.19
2022-11-09T14:40:54.541Z,100225.94
2022-11-09T14:43:26.218Z,100216.66
2022-11-09T14:45:55.045Z,100236.53
2022-11-09T14:48:24.083Z,100238.75
2022-11-09T14:50:55.849Z,100240.41
2022-11-09T14:53:26.649Z,100237.75
2022-11-09T14:55:54.752Z,100242.09
2022-11-09T14:58:22.536Z,100200.53
2022-11-09T15:01:28.240Z,100247.09
2022-11-09T15:04:20.056Z,100246.91
2022-11-09T15:06:46.653Z,100264.13
2022-11-09T15:09:20.149Z,100268.66
2022-11-09T15:11:47.396Z,100269.28
2022-11-09T15:14:20.066Z,100272.75
2022-11-09T15:16:48.060Z,100269.38
2022-11-09T15:19:31.767Z,100272.25
2022-11-09T15:22:00.559Z,100276.78
2022-11-09T15:24:28.778Z,100278.03
2022-11-09T15:26:56.376Z,100289.06
2022-11-09T15:29:36.460Z,100285.91
2022-11-09T15:32:08.916Z,100289.56
2022-11-09T15:34:57.221Z,100290.50
2022-11-09T15:37:26.088Z,100291.00
2022-11-09T15:39:52.979Z,100274.03
2022-11-09T15:42:19.973Z,100302.91
2022-11-09T15:44:46.707Z,100298.31
2022-11-09T15:47:21.684Z,100298.53
2022-11-09T15:49:48.704Z,100305.69
2022-11-09T15:52:15.507Z,100284.06
2022-11-09T15:54:46.634Z,100309.28
2022-11-09T15:57:16.176Z,100296.56
2022-11-09T15:59:42.752Z,100308.63
2022-11-09T16:02:10.920Z,100317.09
2022-11-09T16:04:37.850Z,100328.34
2022-11-09T16:07:04.803Z,100332.59
2022-11-09T16:09:31.316Z,100336.59
2022-11-09T16:11:58.087Z,100308.94
2022-11-09T16:14:24.584Z,100330.34
2022-11-09T16:16:51.156Z,100342.53
2022-11-09T16:19:17.618Z,100352.31
2022-11-09T16:21:44.058Z,100345.28
2022-11-09T16:24:10.516Z,100345.56
2022-11-09T16:26:37.084Z,100354.47
2022-11-09T16:29:03.537Z,100372.00
2022-11-09T16:31:50.234Z,100341.72
2022-11-09T16:34:17.274Z,100337.19
2022-11-09T16:36:49.889Z,100372.41
2022-11-09T16:39:17.521Z,100383.78
2022-11-09T16:41:49.075Z,100380.72
2022-11-09T16:44:17.666Z,100363.00
2022-11-09T16:46:45.661Z,100387.22
2022-11-09T16:49:12.199Z,100387.78
2022-11-09T16:51:38.836Z,100388.38
2022-11-09T16:54:05.326Z,100386.75
2022-11-09T16:56:33.668Z,100407.31
2022-11-09T16:59:00.935Z,100414.16
2022-11-09T17:01:27.561Z,100412.78
2022-11-09T17:03:54.168Z,100416.13
2022-11-09T17:06:20.999Z,100411.63
2022-11-09T17:08:47.581Z,100415.13
2022-11-09T17:11:15.256Z,100424.03
2022-11-09T17:13:41.743Z,100429.53
2022-11-09T17:16:10.387Z,100437.97
2022-11-09T17:18:37.835Z,100397.50
2022-11-09T17:21:09.748Z,100402.47
2022-11-09T17:23:36.403Z,100430.81
2022-11-09T17:26:04.934Z,100437.56
2022-11-09T17:28:31.894Z,100400.19
2022-11-09T17:30:58.483Z,100396.13
2022-11-09T17:33:25.032Z,100440.38
2022-11-09T17:35:59.148Z,100461.19
2022-11-09T17:38:26.047Z,100459.09
2022-11-09T17:40:54.396Z,100453.31
2022-11-09T17:43:20.911Z,100469.09
2022-11-09T17:45:55.539Z,100465.53
2022-11-09T17:48:22.311Z,100474.31
2022-11-09T17:50:49.130Z,100466.59
2022-11-09T17:53:15.618Z,100431.75
2022-11-09T17:55:42.061Z,100463.31
2022-11-09T17:58:08.632Z,100457.09
2022-11-09T18:00:35.249Z,100483.78
2022-11-09T18:03:01.785Z,100483.84
2022-11-09T18:05:29.122Z,100473.97
2022-11-09T18:07:58.378Z,100447.94
2022-11-09T18:10:24.839Z,100502.97
2022-11-09T18:12:51.300Z,100505.88
2022-11-09T18:15:17.868Z,100450.38
2022-11-09T18:17:44.313Z,100480.59
2022-11-09T18:20:10.743Z,100508.19
2022-11-09T18:22:37.815Z,100502.22
2022-11-09T18:25:04.419Z,100479.75
2022-11-09T18:27:31.034Z,100501.28
2022-11-09T18:29:58.007Z,100523.06
2022-11-09T18:32:24.487Z,100528.75
2022-11-09T18:34:50.935Z,100491.25
2022-11-09T18:37:17.410Z,100493.66
2022-11-09T18:39:43.957Z,100530.75
2022-11-09T18:42:10.410Z,100522.53
2022-11-09T18:44:36.828Z,100529.28
2022-11-09T18:47:05.883Z,100528.75
2022-11-09T18:49:32.499Z,100525.50
2022-11-09T18:51:59.149Z,100540.78
2022-11-09T18:54:26.330Z,100552.72
2022-11-09T18:56:53.052Z,100546.13
2022-11-09T18:59:19.873Z,100523.72
2022-11-09T19:01:46.631Z,100560.59
2022-11-09T19:04:14.630Z,100492.31
2022-11-09T19:06:43.900Z,100578.72
2022-11-09T19:09:31.453Z,100557.50
2022-11-09T19:11:59.867Z,100577.28
2022-11-09T19:14:27.419Z,100572.41
2022-11-09T19:16:54.445Z,100559.06
2022-11-09T19:19:21.026Z,100585.88
2022-11-09T19:21:51.232Z,100586.84
2022-11-09T19:24:19.639Z,100597.06
2022-11-09T19:26:47.070Z,100605.38
2022-11-09T19:29:14.284Z,100603.41
2022-11-09T19:31:44.183Z,100606.19
2022-11-09T19:34:12.809Z,100596.53
2022-11-09T19:36:39.607Z,100583.16
2022-11-09T19:39:06.072Z,100603.66
2022-11-09T19:41:32.585Z,100621.06
2022-11-09T19:43:59.282Z,100626.78
2022-11-09T19:46:30.992Z,100634.22
2022-11-09T19:48:57.635Z,100627.47
2022-11-09T19:51:24.311Z,100625.84
2022-11-09T19:53:55.897Z,100629.69
2022-11-09T19:56:24.365Z,100608.31
2022-11-09T19:58:52.967Z,100648.31
2022-11-09T20:01:19.661Z,100643.97
2022-11-09T20:03:50.926Z,100645.38
2022-11-09T20:06:17.904Z,100652.69
2022-11-09T20:08:44.608Z,100664.34
2022-11-09T20:11:37.061Z,100664.03
2022-11-09T20:14:07.306Z,100668.00
2022-11-09T20:16:34.708Z,100640.44
2022-11-09T20:19:02.869Z,100675.56
2022-11-09T20:21:40.221Z,100678.66
2022-11-09T20:24:07.747Z,100675.69
2022-11-09T20:26:34.235Z,100680.72
2022-11-09T20:29:00.999Z,100681.94
2022-11-09T20:31:27.504Z,100706.88
2022-11-09T20:33:55.820Z,100699.34
2022-11-09T20:36:22.374Z,100711.88
2022-11-09T20:38:48.975Z,100715.38
2022-11-09T20:41:15.465Z,100684.75
2022-11-09T20:43:42.383Z,100668.75
2022-11-09T20:46:16.036Z,100726.06
2022-11-09T20:48:58.425Z,100740.00
2022-11-09T20:51:25.307Z,100716.56
2022-11-09T20:53:52.142Z,100689.72
2022-11-09T20:56:19.574Z,100737.72
2022-11-09T20:58:46.149Z,100739.72
2022-11-09T21:01:22.437Z,100742.66
2022-11-09T21:03:53.864Z,100734.59
2022-11-09T21:06:21.482Z,100753.38
2022-11-09T21:08:54.185Z,100749.69
2022-11-09T21:11:23.621Z,100737.69
2022-11-09T21:13:52.025Z,100756.72
2022-11-09T21:16:19.894Z,100747.13
2022-11-09T21:18:46.572Z,100739.13
2022-11-09T21:21:22.219Z,100761.72
2022-11-09T21:24:07.433Z,100766.00
2022-11-09T21:26:52.498Z,100745.00
2022-11-09T21:29:39.784Z,100789.16
2022-11-09T21:32:07.479Z,100769.84
2022-11-09T21:34:36.848Z,100774.75
2022-11-09T21:37:04.446Z,100772.63
2022-11-09T21:39:30.966Z,100798.16
2022-11-09T21:41:57.570Z,100793.19
2022-11-09T21:44:24.793Z,100804.94
2022-11-09T21:46:51.366Z,100763.97
2022-11-09T21:49:18.030Z,100801.34
2022-11-09T21:51:46.351Z,100801.00
2022-11-09T21:54:12.886Z,100802.09
2022-11-09T21:56:39.362Z,100799.69
2022-11-09T21:59:05.934Z,100754.50
2022-11-09T22:01:32.517Z,100800.59
2022-11-09T22:03:59.561Z,100808.56
2022-11-09T22:06:26.159Z,100811.91
2022-11-09T22:08:53.157Z,100814.59
2022-11-09T22:11:42.006Z,100822.13
2022-11-09T22:14:36.261Z,100816.38
2022-11-09T22:17:05.142Z,100769.13
2022-11-09T22:19:50.270Z,100824.22
2022-11-09T22:22:16.799Z,100825.19
2022-11-09T22:24:43.343Z,100827.88
2022-11-09T22:27:10.086Z,100778.38
2022-11-09T22:29:36.752Z,100810.00
2022-11-09T22:32:03.499Z,100819.53
2022-11-09T22:34:30.043Z,100786.59
2022-11-09T22:36:56.482Z,100826.69
2022-11-09T22:39:22.965Z,100795.00
2022-11-09T22:41:49.525Z,100835.84
2022-11-09T22:44:16.058Z,100833.19
2022-11-09T22:46:42.505Z,100841.28
2022-11-09T22:49:10.191Z,100783.13
2022-11-09T22:51:36.654Z,100828.09
2022-11-09T22:54:03.256Z,100828.84
2022-11-09T22:56:29.836Z,100821.50
2022-11-09T22:58:56.343Z,100852.88
2022-11-09T23:01:22.956Z,100859.16
2022-11-09T23:03:49.453Z,100860.16
2022-11-09T23:06:21.079Z,100864.94
2022-11-09T23:08:48.340Z,100862.34
2022-11-09T23:11:18.716Z,100857.16
2022-11-09T23:13:49.319Z,100852.44
2022-11-09T23:16:16.017Z,100855.50
2022-11-09T23:18:55.123Z,100877.63
2022-11-09T23:21:21.609Z,100879.53
2022-11-09T23:23:48.621Z,100876.22
2022-11-09T23:26:15.363Z,100882.63
2022-11-09T23:28:41.862Z,100885.03
2022-11-09T23:31:11.330Z,100872.22
2022-11-09T23:33:38.114Z,100896.97
2022-11-09T23:36:07.416Z,100891.81
2022-11-09T23:38:38.367Z,100866.50
2022-11-09T23:41:09.473Z,100858.63
2022-11-09T23:43:36.650Z,100910.31
2022-11-09T23:46:06.294Z,100906.69
2022-11-09T23:48:33.268Z,100914.19
2022-11-09T23:51:00.830Z,100918.44
2022-11-09T23:53:28.723Z,100923.50
2022-11-09T23:56:06.314Z,100926.91
2022-11-09T23:58:32.952Z,100930.06
